sensor_id;sensor_type;location;lat;lon;timestamp;P1;durP1;ratioP1;P2;durP2;ratioP2
19760;SDS011;10039;42.632;23.408;2023-08-12T00:01:01;0.10;;;0.10;;
19760;SDS011;10039;42.632;23.408;2023-08-12T00:03:26;0.10;;;0.10;;
19760;SDS011;10039;42.632;23.408;2023-08-12T00:05:52;0.00;;;0.00;;
19760;SDS011;10039;42.632;23.408;2023-08-12T00:08:18;0.10;;;0.10;;
19760;SDS011;10039;42.632;23.408;2023-08-12T00:10:43;0.10;;;0.10;;
19760;SDS011;10039;42.632;23.408;2023-08-12T00:13:09;0.10;;;0.10;;
19760;SDS011;10039;42.632;23.408;2023-08-12T00:15:34;0.10;;;0.10;;
19760;SDS011;10039;42.632;23.408;2023-08-12T00:18:00;0.20;;;0.20;;
19760;SDS011;10039;42.632;23.408;2023-08-12T00:20:25;0.10;;;0.10;;
19760;SDS011;10039;42.632;23.408;2023-08-12T00:22:51;0.10;;;0.10;;
19760;SDS011;10039;42.632;23.408;2023-08-12T00:25:16;0.10;;;0.10;;
19760;SDS011;10039;42.632;23.408;2023-08-12T00:27:42;0.10;;;0.10;;
19760;SDS011;10039;42.632;23.408;2023-08-12T00:30:07;0.10;;;0.10;;
19760;SDS011;10039;42.632;23.408;2023-08-12T00:32:34;0.10;;;0.10;;
19760;SDS011;10039;42.632;23.408;2023-08-12T00:34:59;0.20;;;0.20;;
19760;SDS011;10039;42.632;23.408;2023-08-12T00:37:24;0.13;;;0.13;;
19760;SDS011;10039;42.632;23.408;2023-08-12T00:39:50;0.10;;;0.10;;
19760;SDS011;10039;42.632;23.408;2023-08-12T00:42:15;0.10;;;0.10;;
19760;SDS011;10039;42.632;23.408;2023-08-12T00:44:41;0.10;;;0.10;;
19760;SDS011;10039;42.632;23.408;2023-08-12T00:47:06;0.10;;;0.10;;
19760;SDS011;10039;42.632;23.408;2023-08-12T00:49:32;0.10;;;0.10;;
19760;SDS011;10039;42.632;23.408;2023-08-12T00:51:58;0.10;;;0.10;;
19760;SDS011;10039;42.632;23.408;2023-08-12T00:54:25;0.20;;;0.20;;
19760;SDS011;10039;42.632;23.408;2023-08-12T00:56:52;0.10;;;0.10;;
19760;SDS011;10039;42.632;23.408;2023-08-12T00:59:19;0.10;;;0.10;;
19760;SDS011;10039;42.632;23.408;2023-08-12T01:01:45;0.10;;;0.10;;
19760;SDS011;10039;42.632;23.408;2023-08-12T01:04:12;0.10;;;0.10;;
19760;SDS011;10039;42.632;23.408;2023-08-12T01:06:37;0.10;;;0.10;;
19760;SDS011;10039;42.632;23.408;2023-08-12T01:09:04;0.10;;;0.10;;
19760;SDS011;10039;42.632;23.408;2023-08-12T01:14:38;0.10;;;0.10;;
19760;SDS011;10039;42.632;23.408;2023-08-12T01:17:21;0.10;;;0.10;;
19760;SDS011;10039;42.632;23.408;2023-08-12T01:19:47;0.10;;;0.10;;
19760;SDS011;10039;42.632;23.408;2023-08-12T01:22:13;0.10;;;0.10;;
19760;SDS011;10039;42.632;23.408;2023-08-12T01:24:44;0.10;;;0.10;;
19760;SDS011;10039;42.632;23.408;2023-08-12T01:27:10;0.10;;;0.10;;
19760;SDS011;10039;42.632;23.408;2023-08-12T01:29:37;0.10;;;0.10;;
19760;SDS011;10039;42.632;23.408;2023-08-12T01:35:09;0.10;;;0.10;;
19760;SDS011;10039;42.632;23.408;2023-08-12T01:37:43;0.10;;;0.10;;
19760;SDS011;10039;42.632;23.408;2023-08-12T01:40:10;0.10;;;0.10;;
19760;SDS011;10039;42.632;23.408;2023-08-12T01:42:38;0.10;;;0.10;;
19760;SDS011;10039;42.632;23.408;2023-08-12T01:45:05;0.10;;;0.10;;
19760;SDS011;10039;42.632;23.408;2023-08-12T01:47:31;0.10;;;0.10;;
19760;SDS011;10039;42.632;23.408;2023-08-12T01:49:59;0.10;;;0.10;;
19760;SDS011;10039;42.632;23.408;2023-08-12T01:52:25;0.10;;;0.10;;
19760;SDS011;10039;42.632;23.408;2023-08-12T01:54:50;0.10;;;0.10;;
19760;SDS011;10039;42.632;23.408;2023-08-12T01:57:16;0.10;;;0.10;;
19760;SDS011;10039;42.632;23.408;2023-08-12T01:59:42;0.10;;;0.10;;
19760;SDS011;10039;42.632;23.408;2023-08-12T02:02:11;0.20;;;0.20;;
19760;SDS011;10039;42.632;23.408;2023-08-12T02:04:37;0.10;;;0.10;;
19760;SDS011;10039;42.632;23.408;2023-08-12T02:07:04;0.10;;;0.10;;
19760;SDS011;10039;42.632;23.408;2023-08-12T02:09:29;0.20;;;0.20;;
19760;SDS011;10039;42.632;23.408;2023-08-12T02:11:55;0.10;;;0.10;;
19760;SDS011;10039;42.632;23.408;2023-08-12T02:14:21;0.10;;;0.10;;
19760;SDS011;10039;42.632;23.408;2023-08-12T02:16:46;0.10;;;0.10;;
19760;SDS011;10039;42.632;23.408;2023-08-12T02:19:12;0.10;;;0.10;;
19760;SDS011;10039;42.632;23.408;2023-08-12T02:21:37;0.17;;;0.17;;
19760;SDS011;10039;42.632;23.408;2023-08-12T02:24:03;0.10;;;0.10;;
19760;SDS011;10039;42.632;23.408;2023-08-12T02:26:28;0.10;;;0.10;;
19760;SDS011;10039;42.632;23.408;2023-08-12T02:28:54;0.00;;;0.00;;
19760;SDS011;10039;42.632;23.408;2023-08-12T02:31:20;0.10;;;0.10;;
19760;SDS011;10039;42.632;23.408;2023-08-12T02:33:45;0.10;;;0.10;;
19760;SDS011;10039;42.632;23.408;2023-08-12T02:36:10;0.10;;;0.10;;
19760;SDS011;10039;42.632;23.408;2023-08-12T02:38:36;0.10;;;0.10;;
19760;SDS011;10039;42.632;23.408;2023-08-12T02:41:01;0.10;;;0.10;;
19760;SDS011;10039;42.632;23.408;2023-08-12T02:43:27;0.10;;;0.10;;
19760;SDS011;10039;42.632;23.408;2023-08-12T02:45:52;0.10;;;0.10;;
19760;SDS011;10039;42.632;23.408;2023-08-12T02:48:18;0.10;;;0.10;;
19760;SDS011;10039;42.632;23.408;2023-08-12T02:50:43;0.10;;;0.10;;
19760;SDS011;10039;42.632;23.408;2023-08-12T02:53:09;0.10;;;0.10;;
19760;SDS011;10039;42.632;23.408;2023-08-12T02:55:34;0.10;;;0.10;;
19760;SDS011;10039;42.632;23.408;2023-08-12T02:58:01;0.10;;;0.10;;
19760;SDS011;10039;42.632;23.408;2023-08-12T03:00:26;0.10;;;0.10;;
19760;SDS011;10039;42.632;23.408;2023-08-12T03:02:52;0.15;;;0.15;;
19760;SDS011;10039;42.632;23.408;2023-08-12T03:05:18;0.10;;;0.10;;
19760;SDS011;10039;42.632;23.408;2023-08-12T03:07:44;0.10;;;0.10;;
19760;SDS011;10039;42.632;23.408;2023-08-12T03:10:10;0.10;;;0.10;;
19760;SDS011;10039;42.632;23.408;2023-08-12T03:12:35;0.20;;;0.20;;
19760;SDS011;10039;42.632;23.408;2023-08-12T03:15:02;0.10;;;0.10;;
19760;SDS011;10039;42.632;23.408;2023-08-12T03:17:28;0.10;;;0.10;;
19760;SDS011;10039;42.632;23.408;2023-08-12T03:19:54;0.10;;;0.10;;
19760;SDS011;10039;42.632;23.408;2023-08-12T03:22:20;0.15;;;0.15;;
19760;SDS011;10039;42.632;23.408;2023-08-12T03:24:46;0.10;;;0.10;;
19760;SDS011;10039;42.632;23.408;2023-08-12T03:27:11;0.00;;;0.00;;
19760;SDS011;10039;42.632;23.408;2023-08-12T03:29:37;0.05;;;0.05;;
19760;SDS011;10039;42.632;23.408;2023-08-12T03:32:02;0.10;;;0.10;;
19760;SDS011;10039;42.632;23.408;2023-08-12T03:34:28;0.10;;;0.10;;
19760;SDS011;10039;42.632;23.408;2023-08-12T03:36:54;0.10;;;0.10;;
19760;SDS011;10039;42.632;23.408;2023-08-12T03:39:20;0.10;;;0.10;;
19760;SDS011;10039;42.632;23.408;2023-08-12T03:41:45;0.10;;;0.10;;
19760;SDS011;10039;42.632;23.408;2023-08-12T03:44:11;0.10;;;0.10;;
19760;SDS011;10039;42.632;23.408;2023-08-12T03:46:36;0.10;;;0.10;;
19760;SDS011;10039;42.632;23.408;2023-08-12T03:49:02;0.10;;;0.10;;
19760;SDS011;10039;42.632;23.408;2023-08-12T03:51:27;0.10;;;0.10;;
19760;SDS011;10039;42.632;23.408;2023-08-12T03:53:53;0.20;;;0.20;;
19760;SDS011;10039;42.632;23.408;2023-08-12T03:56:18;0.10;;;0.10;;
19760;SDS011;10039;42.632;23.408;2023-08-12T03:58:43;0.10;;;0.10;;
19760;SDS011;10039;42.632;23.408;2023-08-12T04:01:09;0.17;;;0.17;;
19760;SDS011;10039;42.632;23.408;2023-08-12T04:03:34;0.10;;;0.10;;
19760;SDS011;10039;42.632;23.408;2023-08-12T04:06:00;0.10;;;0.10;;
19760;SDS011;10039;42.632;23.408;2023-08-12T04:08:25;0.20;;;0.20;;
19760;SDS011;10039;42.632;23.408;2023-08-12T04:10:51;0.20;;;0.20;;
19760;SDS011;10039;42.632;23.408;2023-08-12T04:13:17;0.17;;;0.17;;
19760;SDS011;10039;42.632;23.408;2023-08-12T04:15:42;0.10;;;0.10;;
19760;SDS011;10039;42.632;23.408;2023-08-12T04:18:14;0.13;;;0.13;;
19760;SDS011;10039;42.632;23.408;2023-08-12T04:20:39;0.10;;;0.10;;
19760;SDS011;10039;42.632;23.408;2023-08-12T04:23:06;0.10;;;0.10;;
19760;SDS011;10039;42.632;23.408;2023-08-12T04:25:31;0.10;;;0.10;;
19760;SDS011;10039;42.632;23.408;2023-08-12T04:27:56;0.10;;;0.10;;
19760;SDS011;10039;42.632;23.408;2023-08-12T04:30:23;0.20;;;0.20;;
19760;SDS011;10039;42.632;23.408;2023-08-12T04:32:48;0.10;;;0.10;;
19760;SDS011;10039;42.632;23.408;2023-08-12T04:35:13;0.10;;;0.10;;
19760;SDS011;10039;42.632;23.408;2023-08-12T04:37:39;0.10;;;0.10;;
19760;SDS011;10039;42.632;23.408;2023-08-12T04:40:05;0.20;;;0.20;;
19760;SDS011;10039;42.632;23.408;2023-08-12T04:42:32;0.20;;;0.20;;
19760;SDS011;10039;42.632;23.408;2023-08-12T04:44:58;0.13;;;0.13;;
19760;SDS011;10039;42.632;23.408;2023-08-12T04:47:23;0.10;;;0.10;;
19760;SDS011;10039;42.632;23.408;2023-08-12T04:49:49;0.15;;;0.15;;
19760;SDS011;10039;42.632;23.408;2023-08-12T04:52:14;0.20;;;0.20;;
19760;SDS011;10039;42.632;23.408;2023-08-12T04:54:40;0.10;;;0.10;;
19760;SDS011;10039;42.632;23.408;2023-08-12T04:57:05;0.10;;;0.10;;
19760;SDS011;10039;42.632;23.408;2023-08-12T04:59:31;0.10;;;0.10;;
19760;SDS011;10039;42.632;23.408;2023-08-12T05:01:56;0.10;;;0.10;;
19760;SDS011;10039;42.632;23.408;2023-08-12T05:04:21;0.17;;;0.17;;
19760;SDS011;10039;42.632;23.408;2023-08-12T05:06:47;0.10;;;0.10;;
19760;SDS011;10039;42.632;23.408;2023-08-12T05:09:13;0.10;;;0.10;;
19760;SDS011;10039;42.632;23.408;2023-08-12T05:11:39;0.10;;;0.10;;
19760;SDS011;10039;42.632;23.408;2023-08-12T05:14:04;0.20;;;0.20;;
19760;SDS011;10039;42.632;23.408;2023-08-12T05:16:30;0.10;;;0.10;;
19760;SDS011;10039;42.632;23.408;2023-08-12T05:18:55;0.10;;;0.10;;
19760;SDS011;10039;42.632;23.408;2023-08-12T05:21:21;0.10;;;0.10;;
19760;SDS011;10039;42.632;23.408;2023-08-12T05:23:46;0.10;;;0.10;;
19760;SDS011;10039;42.632;23.408;2023-08-12T05:26:12;0.10;;;0.10;;
19760;SDS011;10039;42.632;23.408;2023-08-12T05:28:38;0.10;;;0.10;;
19760;SDS011;10039;42.632;23.408;2023-08-12T05:31:03;0.10;;;0.10;;
19760;SDS011;10039;42.632;23.408;2023-08-12T05:33:29;0.10;;;0.10;;
19760;SDS011;10039;42.632;23.408;2023-08-12T05:35:54;0.10;;;0.10;;
19760;SDS011;10039;42.632;23.408;2023-08-12T05:38:20;0.10;;;0.10;;
19760;SDS011;10039;42.632;23.408;2023-08-12T05:40:45;0.10;;;0.10;;
19760;SDS011;10039;42.632;23.408;2023-08-12T05:43:11;0.10;;;0.10;;
19760;SDS011;10039;42.632;23.408;2023-08-12T05:45:36;0.10;;;0.10;;
19760;SDS011;10039;42.632;23.408;2023-08-12T05:48:02;0.20;;;0.20;;
19760;SDS011;10039;42.632;23.408;2023-08-12T05:50:28;0.10;;;0.10;;
19760;SDS011;10039;42.632;23.408;2023-08-12T05:52:53;0.10;;;0.10;;
19760;SDS011;10039;42.632;23.408;2023-08-12T05:55:19;0.10;;;0.10;;
19760;SDS011;10039;42.632;23.408;2023-08-12T05:57:44;0.10;;;0.10;;
19760;SDS011;10039;42.632;23.408;2023-08-12T06:00:10;0.10;;;0.10;;
19760;SDS011;10039;42.632;23.408;2023-08-12T06:02:36;0.10;;;0.10;;
19760;SDS011;10039;42.632;23.408;2023-08-12T06:05:02;0.10;;;0.10;;
19760;SDS011;10039;42.632;23.408;2023-08-12T06:07:27;0.10;;;0.10;;
19760;SDS011;10039;42.632;23.408;2023-08-12T06:09:53;0.10;;;0.10;;
19760;SDS011;10039;42.632;23.408;2023-08-12T06:12:18;0.10;;;0.10;;
19760;SDS011;10039;42.632;23.408;2023-08-12T06:14:51;0.00;;;0.00;;
19760;SDS011;10039;42.632;23.408;2023-08-12T06:17:17;0.10;;;0.10;;
19760;SDS011;10039;42.632;23.408;2023-08-12T06:19:42;0.10;;;0.10;;
19760;SDS011;10039;42.632;23.408;2023-08-12T06:22:08;0.10;;;0.10;;
19760;SDS011;10039;42.632;23.408;2023-08-12T06:24:33;0.10;;;0.10;;
19760;SDS011;10039;42.632;23.408;2023-08-12T06:26:58;0.10;;;0.10;;
19760;SDS011;10039;42.632;23.408;2023-08-12T06:29:24;0.20;;;0.20;;
19760;SDS011;10039;42.632;23.408;2023-08-12T06:31:49;0.10;;;0.10;;
19760;SDS011;10039;42.632;23.408;2023-08-12T06:34:15;0.10;;;0.10;;
19760;SDS011;10039;42.632;23.408;2023-08-12T06:36:40;0.10;;;0.10;;
19760;SDS011;10039;42.632;23.408;2023-08-12T06:39:05;0.00;;;0.00;;
19760;SDS011;10039;42.632;23.408;2023-08-12T06:41:31;0.10;;;0.10;;
19760;SDS011;10039;42.632;23.408;2023-08-12T06:43:57;0.00;;;0.00;;
19760;SDS011;10039;42.632;23.408;2023-08-12T06:46:22;0.10;;;0.10;;
19760;SDS011;10039;42.632;23.408;2023-08-12T06:48:48;0.10;;;0.10;;
19760;SDS011;10039;42.632;23.408;2023-08-12T06:51:13;0.10;;;0.10;;
19760;SDS011;10039;42.632;23.408;2023-08-12T06:53:39;0.10;;;0.10;;
19760;SDS011;10039;42.632;23.408;2023-08-12T06:56:05;0.00;;;0.00;;
19760;SDS011;10039;42.632;23.408;2023-08-12T06:58:30;0.00;;;0.00;;
19760;SDS011;10039;42.632;23.408;2023-08-12T07:00:57;0.10;;;0.10;;
19760;SDS011;10039;42.632;23.408;2023-08-12T07:03:24;0.10;;;0.10;;
19760;SDS011;10039;42.632;23.408;2023-08-12T07:05:50;0.00;;;0.00;;
19760;SDS011;10039;42.632;23.408;2023-08-12T07:08:16;0.00;;;0.00;;
19760;SDS011;10039;42.632;23.408;2023-08-12T07:10:42;0.10;;;0.10;;
19760;SDS011;10039;42.632;23.408;2023-08-12T07:13:10;0.00;;;0.00;;
19760;SDS011;10039;42.632;23.408;2023-08-12T07:15:35;0.10;;;0.10;;
19760;SDS011;10039;42.632;23.408;2023-08-12T07:18:01;0.00;;;0.00;;
19760;SDS011;10039;42.632;23.408;2023-08-12T07:20:26;0.10;;;0.10;;
19760;SDS011;10039;42.632;23.408;2023-08-12T07:22:52;0.00;;;0.00;;
19760;SDS011;10039;42.632;23.408;2023-08-12T07:25:18;0.00;;;0.00;;
19760;SDS011;10039;42.632;23.408;2023-08-12T07:27:44;0.00;;;0.00;;
19760;SDS011;10039;42.632;23.408;2023-08-12T07:30:09;0.00;;;0.00;;
19760;SDS011;10039;42.632;23.408;2023-08-12T07:32:38;0.00;;;0.00;;
19760;SDS011;10039;42.632;23.408;2023-08-12T07:35:04;0.10;;;0.10;;
19760;SDS011;10039;42.632;23.408;2023-08-12T07:37:33;0.03;;;0.03;;
19760;SDS011;10039;42.632;23.408;2023-08-12T07:39:59;0.00;;;0.00;;
19760;SDS011;10039;42.632;23.408;2023-08-12T07:42:24;0.00;;;0.00;;
19760;SDS011;10039;42.632;23.408;2023-08-12T07:44:50;0.00;;;0.00;;
19760;SDS011;10039;42.632;23.408;2023-08-12T07:47:18;0.03;;;0.03;;
19760;SDS011;10039;42.632;23.408;2023-08-12T07:49:44;0.00;;;0.00;;
19760;SDS011;10039;42.632;23.408;2023-08-12T07:52:10;0.00;;;0.00;;
19760;SDS011;10039;42.632;23.408;2023-08-12T07:54:36;0.00;;;0.00;;
19760;SDS011;10039;42.632;23.408;2023-08-12T07:57:01;0.00;;;0.00;;
19760;SDS011;10039;42.632;23.408;2023-08-12T07:59:27;0.00;;;0.00;;
19760;SDS011;10039;42.632;23.408;2023-08-12T08:01:53;0.00;;;0.00;;
19760;SDS011;10039;42.632;23.408;2023-08-12T08:04:18;0.00;;;0.00;;
19760;SDS011;10039;42.632;23.408;2023-08-12T08:06:44;0.00;;;0.00;;
19760;SDS011;10039;42.632;23.408;2023-08-12T08:09:10;0.00;;;0.00;;
19760;SDS011;10039;42.632;23.408;2023-08-12T08:11:36;0.00;;;0.00;;
19760;SDS011;10039;42.632;23.408;2023-08-12T08:14:01;0.00;;;0.00;;
19760;SDS011;10039;42.632;23.408;2023-08-12T08:16:27;0.00;;;0.00;;
19760;SDS011;10039;42.632;23.408;2023-08-12T08:18:53;0.00;;;0.00;;
19760;SDS011;10039;42.632;23.408;2023-08-12T08:21:19;0.00;;;0.00;;
19760;SDS011;10039;42.632;23.408;2023-08-12T08:23:44;0.00;;;0.00;;
19760;SDS011;10039;42.632;23.408;2023-08-12T08:26:10;0.00;;;0.00;;
19760;SDS011;10039;42.632;23.408;2023-08-12T08:28:37;0.10;;;0.10;;
19760;SDS011;10039;42.632;23.408;2023-08-12T08:31:03;0.00;;;0.00;;
19760;SDS011;10039;42.632;23.408;2023-08-12T08:33:29;0.10;;;0.10;;
19760;SDS011;10039;42.632;23.408;2023-08-12T08:35:54;0.00;;;0.00;;
19760;SDS011;10039;42.632;23.408;2023-08-12T08:38:20;0.00;;;0.00;;
19760;SDS011;10039;42.632;23.408;2023-08-12T08:40:45;0.00;;;0.00;;
19760;SDS011;10039;42.632;23.408;2023-08-12T08:43:11;0.00;;;0.00;;
19760;SDS011;10039;42.632;23.408;2023-08-12T08:45:45;0.00;;;0.00;;
19760;SDS011;10039;42.632;23.408;2023-08-12T08:48:11;0.00;;;0.00;;
19760;SDS011;10039;42.632;23.408;2023-08-12T08:50:37;0.00;;;0.00;;
19760;SDS011;10039;42.632;23.408;2023-08-12T08:53:04;0.00;;;0.00;;
19760;SDS011;10039;42.632;23.408;2023-08-12T08:55:31;0.00;;;0.00;;
19760;SDS011;10039;42.632;23.408;2023-08-12T09:00:41;0.00;;;0.00;;
19760;SDS011;10039;42.632;23.408;2023-08-12T09:03:08;0.00;;;0.00;;
19760;SDS011;10039;42.632;23.408;2023-08-12T09:05:35;0.00;;;0.00;;
19760;SDS011;10039;42.632;23.408;2023-08-12T09:08:03;0.00;;;0.00;;
19760;SDS011;10039;42.632;23.408;2023-08-12T09:10:31;0.00;;;0.00;;
19760;SDS011;10039;42.632;23.408;2023-08-12T09:13:00;0.00;;;0.00;;
19760;SDS011;10039;42.632;23.408;2023-08-12T09:15:25;0.00;;;0.00;;
19760;SDS011;10039;42.632;23.408;2023-08-12T09:17:51;0.00;;;0.00;;
19760;SDS011;10039;42.632;23.408;2023-08-12T09:20:19;0.00;;;0.00;;
19760;SDS011;10039;42.632;23.408;2023-08-12T09:22:45;0.00;;;0.00;;
19760;SDS011;10039;42.632;23.408;2023-08-12T09:25:11;0.00;;;0.00;;
19760;SDS011;10039;42.632;23.408;2023-08-12T09:27:36;0.00;;;0.00;;
19760;SDS011;10039;42.632;23.408;2023-08-12T09:30:05;0.00;;;0.00;;
19760;SDS011;10039;42.632;23.408;2023-08-12T09:32:31;0.00;;;0.00;;
19760;SDS011;10039;42.632;23.408;2023-08-12T09:34:59;0.00;;;0.00;;
19760;SDS011;10039;42.632;23.408;2023-08-12T09:37:27;0.00;;;0.00;;
19760;SDS011;10039;42.632;23.408;2023-08-12T09:39:53;0.00;;;0.00;;
19760;SDS011;10039;42.632;23.408;2023-08-12T09:42:20;0.00;;;0.00;;
19760;SDS011;10039;42.632;23.408;2023-08-12T09:44:46;0.00;;;0.00;;
19760;SDS011;10039;42.632;23.408;2023-08-12T09:47:11;0.00;;;0.00;;
19760;SDS011;10039;42.632;23.408;2023-08-12T09:49:40;0.00;;;0.00;;
19760;SDS011;10039;42.632;23.408;2023-08-12T09:52:06;0.00;;;0.00;;
19760;SDS011;10039;42.632;23.408;2023-08-12T09:54:36;0.00;;;0.00;;
19760;SDS011;10039;42.632;23.408;2023-08-12T09:57:02;0.00;;;0.00;;
19760;SDS011;10039;42.632;23.408;2023-08-12T09:59:31;0.00;;;0.00;;
19760;SDS011;10039;42.632;23.408;2023-08-12T10:02:00;0.00;;;0.00;;
19760;SDS011;10039;42.632;23.408;2023-08-12T10:04:37;0.00;;;0.00;;
19760;SDS011;10039;42.632;23.408;2023-08-12T10:07:10;0.00;;;0.00;;
19760;SDS011;10039;42.632;23.408;2023-08-12T10:09:38;0.00;;;0.00;;
19760;SDS011;10039;42.632;23.408;2023-08-12T10:12:05;0.00;;;0.00;;
19760;SDS011;10039;42.632;23.408;2023-08-12T10:14:31;0.00;;;0.00;;
19760;SDS011;10039;42.632;23.408;2023-08-12T10:16:58;0.00;;;0.00;;
19760;SDS011;10039;42.632;23.408;2023-08-12T10:19:24;0.00;;;0.00;;
19760;SDS011;10039;42.632;23.408;2023-08-12T10:21:50;0.00;;;0.00;;
19760;SDS011;10039;42.632;23.408;2023-08-12T10:24:23;0.00;;;0.00;;
19760;SDS011;10039;42.632;23.408;2023-08-12T10:26:49;0.00;;;0.00;;
19760;SDS011;10039;42.632;23.408;2023-08-12T10:29:16;0.00;;;0.00;;
19760;SDS011;10039;42.632;23.408;2023-08-12T10:31:41;0.00;;;0.00;;
19760;SDS011;10039;42.632;23.408;2023-08-12T10:34:17;0.00;;;0.00;;
19760;SDS011;10039;42.632;23.408;2023-08-12T10:36:46;0.00;;;0.00;;
19760;SDS011;10039;42.632;23.408;2023-08-12T10:39:12;0.00;;;0.00;;
19760;SDS011;10039;42.632;23.408;2023-08-12T10:41:39;0.00;;;0.00;;
19760;SDS011;10039;42.632;23.408;2023-08-12T10:44:15;0.00;;;0.00;;
19760;SDS011;10039;42.632;23.408;2023-08-12T10:46:40;0.00;;;0.00;;
19760;SDS011;10039;42.632;23.408;2023-08-12T10:49:15;0.00;;;0.00;;
19760;SDS011;10039;42.632;23.408;2023-08-12T10:51:42;0.00;;;0.00;;
19760;SDS011;10039;42.632;23.408;2023-08-12T11:02:26;0.00;;;0.00;;
19760;SDS011;10039;42.632;23.408;2023-08-12T11:05:02;0.00;;;0.00;;
19760;SDS011;10039;42.632;23.408;2023-08-12T11:07:45;0.00;;;0.00;;
19760;SDS011;10039;42.632;23.408;2023-08-12T11:10:26;0.00;;;0.00;;
19760;SDS011;10039;42.632;23.408;2023-08-12T11:12:55;0.00;;;0.00;;
19760;SDS011;10039;42.632;23.408;2023-08-12T11:15:35;0.00;;;0.00;;
19760;SDS011;10039;42.632;23.408;2023-08-12T11:18:05;0.00;;;0.00;;
19760;SDS011;10039;42.632;23.408;2023-08-12T11:20:33;0.00;;;0.00;;
19760;SDS011;10039;42.632;23.408;2023-08-12T11:22:59;0.00;;;0.00;;
19760;SDS011;10039;42.632;23.408;2023-08-12T11:25:25;0.00;;;0.00;;
19760;SDS011;10039;42.632;23.408;2023-08-12T11:27:53;0.00;;;0.00;;
19760;SDS011;10039;42.632;23.408;2023-08-12T11:30:20;0.00;;;0.00;;
19760;SDS011;10039;42.632;23.408;2023-08-12T11:32:47;0.00;;;0.00;;
19760;SDS011;10039;42.632;23.408;2023-08-12T11:35:14;0.00;;;0.00;;
19760;SDS011;10039;42.632;23.408;2023-08-12T11:37:41;0.00;;;0.00;;
19760;SDS011;10039;42.632;23.408;2023-08-12T11:40:10;0.00;;;0.00;;
19760;SDS011;10039;42.632;23.408;2023-08-12T11:42:40;0.00;;;0.00;;
19760;SDS011;10039;42.632;23.408;2023-08-12T11:45:07;0.00;;;0.00;;
19760;SDS011;10039;42.632;23.408;2023-08-12T11:47:33;0.00;;;0.00;;
19760;SDS011;10039;42.632;23.408;2023-08-12T11:50:03;0.00;;;0.00;;
19760;SDS011;10039;42.632;23.408;2023-08-12T11:52:37;0.00;;;0.00;;
19760;SDS011;10039;42.632;23.408;2023-08-12T11:55:05;0.00;;;0.00;;
19760;SDS011;10039;42.632;23.408;2023-08-12T11:57:31;0.00;;;0.00;;
19760;SDS011;10039;42.632;23.408;2023-08-12T12:00:03;0.00;;;0.00;;
19760;SDS011;10039;42.632;23.408;2023-08-12T12:02:36;0.00;;;0.00;;
19760;SDS011;10039;42.632;23.408;2023-08-12T12:05:10;0.00;;;0.00;;
19760;SDS011;10039;42.632;23.408;2023-08-12T12:07:36;0.00;;;0.00;;
19760;SDS011;10039;42.632;23.408;2023-08-12T12:10:03;0.00;;;0.00;;
19760;SDS011;10039;42.632;23.408;2023-08-12T12:12:30;0.00;;;0.00;;
19760;SDS011;10039;42.632;23.408;2023-08-12T12:14:58;0.00;;;0.00;;
19760;SDS011;10039;42.632;23.408;2023-08-12T12:17:24;0.00;;;0.00;;
19760;SDS011;10039;42.632;23.408;2023-08-12T12:19:56;0.00;;;0.00;;
19760;SDS011;10039;42.632;23.408;2023-08-12T12:22:26;0.00;;;0.00;;
19760;SDS011;10039;42.632;23.408;2023-08-12T12:24:53;0.00;;;0.00;;
19760;SDS011;10039;42.632;23.408;2023-08-12T12:27:19;0.00;;;0.00;;
19760;SDS011;10039;42.632;23.408;2023-08-12T12:29:45;0.00;;;0.00;;
19760;SDS011;10039;42.632;23.408;2023-08-12T12:32:10;0.00;;;0.00;;
19760;SDS011;10039;42.632;23.408;2023-08-12T12:34:36;0.00;;;0.00;;
19760;SDS011;10039;42.632;23.408;2023-08-12T12:37:01;0.00;;;0.00;;
19760;SDS011;10039;42.632;23.408;2023-08-12T12:39:27;0.00;;;0.00;;
19760;SDS011;10039;42.632;23.408;2023-08-12T12:41:52;0.00;;;0.00;;
19760;SDS011;10039;42.632;23.408;2023-08-12T12:44:17;0.00;;;0.00;;
19760;SDS011;10039;42.632;23.408;2023-08-12T12:46:43;0.00;;;0.00;;
19760;SDS011;10039;42.632;23.408;2023-08-12T12:49:08;0.00;;;0.00;;
19760;SDS011;10039;42.632;23.408;2023-08-12T12:51:34;0.00;;;0.00;;
19760;SDS011;10039;42.632;23.408;2023-08-12T12:53:59;0.00;;;0.00;;
19760;SDS011;10039;42.632;23.408;2023-08-12T12:56:24;0.00;;;0.00;;
19760;SDS011;10039;42.632;23.408;2023-08-12T12:58:50;0.00;;;0.00;;
19760;SDS011;10039;42.632;23.408;2023-08-12T13:01:16;0.00;;;0.00;;
19760;SDS011;10039;42.632;23.408;2023-08-12T13:03:41;0.00;;;0.00;;
19760;SDS011;10039;42.632;23.408;2023-08-12T13:06:06;0.00;;;0.00;;
19760;SDS011;10039;42.632;23.408;2023-08-12T13:08:32;0.00;;;0.00;;
19760;SDS011;10039;42.632;23.408;2023-08-12T13:10:58;0.00;;;0.00;;
19760;SDS011;10039;42.632;23.408;2023-08-12T13:13:24;0.00;;;0.00;;
19760;SDS011;10039;42.632;23.408;2023-08-12T13:15:49;0.00;;;0.00;;
19760;SDS011;10039;42.632;23.408;2023-08-12T13:18:15;0.00;;;0.00;;
19760;SDS011;10039;42.632;23.408;2023-08-12T13:20:41;0.00;;;0.00;;
19760;SDS011;10039;42.632;23.408;2023-08-12T13:23:07;0.10;;;0.10;;
19760;SDS011;10039;42.632;23.408;2023-08-12T13:25:33;0.00;;;0.00;;
19760;SDS011;10039;42.632;23.408;2023-08-12T13:27:59;0.00;;;0.00;;
19760;SDS011;10039;42.632;23.408;2023-08-12T13:30:25;0.00;;;0.00;;
19760;SDS011;10039;42.632;23.408;2023-08-12T13:32:51;0.00;;;0.00;;
19760;SDS011;10039;42.632;23.408;2023-08-12T13:35:17;0.00;;;0.00;;
19760;SDS011;10039;42.632;23.408;2023-08-12T13:37:43;0.00;;;0.00;;
19760;SDS011;10039;42.632;23.408;2023-08-12T13:40:08;0.00;;;0.00;;
19760;SDS011;10039;42.632;23.408;2023-08-12T13:42:35;0.00;;;0.00;;
19760;SDS011;10039;42.632;23.408;2023-08-12T13:45:00;0.00;;;0.00;;
19760;SDS011;10039;42.632;23.408;2023-08-12T13:47:26;0.00;;;0.00;;
19760;SDS011;10039;42.632;23.408;2023-08-12T13:49:51;0.00;;;0.00;;
19760;SDS011;10039;42.632;23.408;2023-08-12T13:52:17;0.00;;;0.00;;
19760;SDS011;10039;42.632;23.408;2023-08-12T13:54:42;0.00;;;0.00;;
19760;SDS011;10039;42.632;23.408;2023-08-12T13:57:08;0.00;;;0.00;;
19760;SDS011;10039;42.632;23.408;2023-08-12T13:59:33;0.03;;;0.03;;
19760;SDS011;10039;42.632;23.408;2023-08-12T14:01:59;0.00;;;0.00;;
19760;SDS011;10039;42.632;23.408;2023-08-12T14:04:24;0.00;;;0.00;;
19760;SDS011;10039;42.632;23.408;2023-08-12T14:06:50;0.00;;;0.00;;
19760;SDS011;10039;42.632;23.408;2023-08-12T14:09:15;0.00;;;0.00;;
19760;SDS011;10039;42.632;23.408;2023-08-12T14:11:42;0.00;;;0.00;;
19760;SDS011;10039;42.632;23.408;2023-08-12T14:14:08;0.00;;;0.00;;
19760;SDS011;10039;42.632;23.408;2023-08-12T14:16:33;0.00;;;0.00;;
19760;SDS011;10039;42.632;23.408;2023-08-12T14:18:59;0.00;;;0.00;;
19760;SDS011;10039;42.632;23.408;2023-08-12T14:21:24;0.00;;;0.00;;
19760;SDS011;10039;42.632;23.408;2023-08-12T14:23:50;0.00;;;0.00;;
19760;SDS011;10039;42.632;23.408;2023-08-12T14:26:15;0.00;;;0.00;;
19760;SDS011;10039;42.632;23.408;2023-08-12T14:28:41;0.00;;;0.00;;
19760;SDS011;10039;42.632;23.408;2023-08-12T14:31:08;0.00;;;0.00;;
19760;SDS011;10039;42.632;23.408;2023-08-12T14:33:34;0.00;;;0.00;;
19760;SDS011;10039;42.632;23.408;2023-08-12T14:35:59;0.00;;;0.00;;
19760;SDS011;10039;42.632;23.408;2023-08-12T14:38:25;0.00;;;0.00;;
19760;SDS011;10039;42.632;23.408;2023-08-12T14:40:50;0.00;;;0.00;;
19760;SDS011;10039;42.632;23.408;2023-08-12T14:43:16;0.00;;;0.00;;
19760;SDS011;10039;42.632;23.408;2023-08-12T14:45:43;0.00;;;0.00;;